Time;durP1;ratioP1;P1;durP2;ratioP2;P2;SDS_P1;SDS_P2;PMS_P1;PMS_P2;Temp;Humidity;BMP_temperature;BMP_pressure;BME280_temperature;BME280_humidity;BME280_pressure;Samples;Min_cycle;Max_cycle;Signal;HPM_P1;HPM_P2
2024/03/17 00:02:54;;;;;;;4.75;2.45;;;9.80;99.90;;;;;;6222910;28;20060;-87
2024/03/17 00:05:54;;;;;;;5.22;3.00;;;9.80;99.90;;;;;;6223551;28;20058;-87
2024/03/17 00:08:55;;;;;;;6.45;2.92;;;9.80;99.90;;;;;;6199631;28;20057;-87
2024/03/17 00:11:56;;;;;;;6.38;2.95;;;9.90;99.90;;;;;;6223040;28;20061;-86
2024/03/17 00:14:57;;;;;;;5.93;3.00;;;10.00;99.90;;;;;;6217570;28;20058;-87
2024/03/17 00:17:58;;;;;;;5.85;3.20;;;10.00;99.90;;;;;;6222552;28;20062;-86
2024/03/17 00:20:59;;;;;;;10.27;3.05;;;10.00;99.90;;;;;;6183269;28;20058;-87
2024/03/17 00:24:02;;;;;;;6.13;2.72;;;10.10;99.90;;;;;;6221625;28;20065;-87
2024/03/17 00:27:02;;;;;;;5.38;2.70;;;10.10;99.90;;;;;;6222449;28;20054;-88
2024/03/17 00:30:08;;;;;;;4.85;2.80;;;10.20;99.90;;;;;;6216804;28;20057;-84
2024/03/17 00:33:10;;;;;;;8.23;3.30;;;10.20;99.90;;;;;;6203464;28;20058;-87
2024/03/17 00:36:10;;;;;;;6.70;3.10;;;10.20;99.90;;;;;;6223124;28;20054;-87
2024/03/17 00:39:12;;;;;;;6.53;3.65;;;10.20;99.90;;;;;;6222945;28;20493;-87
2024/03/17 00:42:13;;;;;;;8.05;3.65;;;10.20;99.90;;;;;;6198375;28;20090;-88
2024/03/17 00:45:14;;;;;;;9.68;4.28;;;10.20;99.90;;;;;;6190772;28;20069;-86
2024/03/17 00:48:15;;;;;;;8.52;4.38;;;10.20;99.90;;;;;;6206461;28;20061;-89
2024/03/17 00:51:16;;;;;;;9.50;4.07;;;10.20;99.90;;;;;;6222572;28;20394;-86
2024/03/17 00:54:20;;;;;;;9.50;4.50;;;10.20;99.90;;;;;;6205919;28;20360;-87
2024/03/17 00:57:21;;;;;;;7.70;4.32;;;10.20;99.90;;;;;;6206332;28;20062;-86
2024/03/17 01:00:21;;;;;;;9.13;5.13;;;10.10;99.90;;;;;;6216995;28;20108;-87
2024/03/17 01:03:22;;;;;;;9.48;4.93;;;10.10;99.90;;;;;;6222086;28;20481;-87
2024/03/17 01:06:23;;;;;;;8.20;5.05;;;10.10;99.90;;;;;;6183124;28;20490;-86
2024/03/17 01:09:24;;;;;;;10.82;5.20;;;10.10;99.90;;;;;;6220789;28;20054;-86
2024/03/17 01:12:25;;;;;;;9.57;5.20;;;10.10;99.90;;;;;;6221650;28;20061;-86
2024/03/17 01:15:25;;;;;;;9.10;5.18;;;10.10;99.90;;;;;;6187661;28;20506;-86
2024/03/17 01:18:26;;;;;;;7.75;4.90;;;10.20;99.90;;;;;;6204605;28;20347;-86
2024/03/17 01:21:27;;;;;;;11.27;5.35;;;10.20;99.90;;;;;;6221245;28;20413;-86
2024/03/17 01:24:31;;;;;;;12.30;5.13;;;10.30;99.90;;;;;;6197476;28;20062;-86
2024/03/17 01:27:31;;;;;;;11.40;5.40;;;10.30;99.90;;;;;;6221233;28;20057;-87
2024/03/17 01:30:32;;;;;;;10.20;5.60;;;10.30;99.90;;;;;;6207499;28;20061;-86
2024/03/17 01:33:34;;;;;;;8.30;5.35;;;10.30;99.90;;;;;;6219516;28;20045;-86
2024/03/17 01:36:34;;;;;;;7.68;5.20;;;10.30;99.90;;;;;;6221240;28;20053;-86
2024/03/17 01:39:35;;;;;;;11.98;6.20;;;10.30;99.90;;;;;;6220783;28;20060;-86
2024/03/17 01:42:36;;;;;;;10.10;6.13;;;10.30;99.90;;;;;;6221531;28;20073;-87
2024/03/17 01:45:37;;;;;;;10.88;6.25;;;10.30;99.90;;;;;;6195947;28;20101;-87
2024/03/17 01:48:38;;;;;;;14.15;6.20;;;10.30;99.90;;;;;;6201453;28;20065;-87
2024/03/17 01:51:39;;;;;;;14.27;6.68;;;10.30;99.90;;;;;;6222088;28;20066;-87
2024/03/17 01:54:40;;;;;;;14.70;6.70;;;10.40;99.90;;;;;;6197899;28;20132;-88
2024/03/17 01:57:40;;;;;;;14.20;6.68;;;10.40;99.90;;;;;;6219952;28;20085;-86
2024/03/17 02:00:41;;;;;;;12.20;6.47;;;10.40;99.90;;;;;;6208183;28;20045;-86
2024/03/17 02:03:42;;;;;;;14.73;6.30;;;10.50;99.90;;;;;;6195854;28;20057;-87
2024/03/17 02:06:42;;;;;;;15.18;6.78;;;10.50;99.90;;;;;;6220343;28;20053;-87
2024/03/17 02:09:43;;;;;;;11.68;6.60;;;10.60;99.90;;;;;;6220719;28;20153;-87
2024/03/17 02:12:44;;;;;;;13.38;7.13;;;10.60;99.90;;;;;;6220783;28;20085;-87
2024/03/17 02:15:45;;;;;;;15.45;6.70;;;10.70;99.90;;;;;;6166063;28;20066;-90
2024/03/17 02:18:45;;;;;;;13.20;7.15;;;10.80;99.90;;;;;;6201375;28;20647;-88
2024/03/17 02:21:46;;;;;;;13.73;7.40;;;10.80;99.90;;;;;;6221616;28;20056;-89
2024/03/17 02:24:47;;;;;;;13.88;7.68;;;10.80;99.90;;;;;;6221487;28;20049;-89
2024/03/17 02:27:48;;;;;;;15.32;7.70;;;10.80;99.90;;;;;;6222058;28;20480;-79
2024/03/17 02:30:48;;;;;;;16.95;7.95;;;10.90;99.90;;;;;;6222294;28;20046;-89
2024/03/17 02:33:49;;;;;;;15.50;7.80;;;10.80;99.90;;;;;;6210818;28;20097;-88
2024/03/17 02:36:50;;;;;;;20.30;9.20;;;10.90;99.90;;;;;;6221649;28;20049;-89
2024/03/17 02:39:50;;;;;;;19.55;9.13;;;10.90;99.90;;;;;;6211901;28;20062;-90
2024/03/17 02:42:51;;;;;;;19.58;9.63;;;10.90;99.90;;;;;;6220228;28;20097;-90
2024/03/17 02:45:52;;;;;;;19.60;10.40;;;10.90;99.90;;;;;;6215756;28;20120;-89
2024/03/17 02:48:52;;;;;;;19.33;10.85;;;10.90;99.90;;;;;;6221670;28;20474;-89
2024/03/17 02:51:54;;;;;;;20.23;10.93;;;10.90;99.90;;;;;;6220534;28;20057;-88
2024/03/17 02:54:54;;;;;;;23.73;11.27;;;10.90;99.90;;;;;;6220510;28;20441;-87
2024/03/17 02:57:55;;;;;;;21.25;11.00;;;10.90;99.90;;;;;;6204818;28;20062;-89
2024/03/17 03:00:55;;;;;;;27.67;12.48;;;10.90;99.90;;;;;;6210611;28;20049;-90
2024/03/17 03:03:56;;;;;;;25.30;12.57;;;11.00;99.90;;;;;;6204210;28;20061;-90
2024/03/17 03:06:57;;;;;;;26.58;13.10;;;11.00;99.90;;;;;;6221019;28;20057;-89
2024/03/17 03:09:58;;;;;;;25.50;12.77;;;11.10;99.90;;;;;;6220541;28;20058;-89
2024/03/17 03:12:58;;;;;;;29.40;13.20;;;11.10;99.90;;;;;;6203815;28;20079;-90
2024/03/17 03:15:59;;;;;;;27.10;13.38;;;11.10;99.90;;;;;;6215670;28;20437;-90
2024/03/17 03:18:59;;;;;;;29.35;13.43;;;11.20;99.90;;;;;;6214390;28;20067;-87
2024/03/17 03:22:00;;;;;;;22.42;13.02;;;11.20;99.90;;;;;;6220228;28;20061;-87
2024/03/17 03:25:02;;;;;;;23.77;12.55;;;11.20;99.90;;;;;;6196099;28;20421;-88
2024/03/17 03:28:03;;;;;;;25.02;12.18;;;11.30;99.90;;;;;;6216470;28;20444;-87
2024/03/17 03:31:03;;;;;;;25.33;11.85;;;11.30;99.90;;;;;;6213313;28;20092;-88
2024/03/17 03:34:07;;;;;;;21.55;12.20;;;11.30;99.90;;;;;;6203114;28;20057;-88
2024/03/17 03:37:09;;;;;;;24.27;12.07;;;11.40;99.90;;;;;;6203799;28;20057;-88
2024/03/17 03:40:16;;;;;;;22.65;11.38;;;11.40;99.90;;;;;;6203375;28;20054;-87
2024/03/17 03:43:17;;;;;;;22.25;11.20;;;11.50;99.90;;;;;;6192621;28;20406;-78
2024/03/17 03:46:18;;;;;;;19.17;9.25;;;11.50;99.90;;;;;;6183576;28;20063;-87
2024/03/17 03:49:19;;;;;;;20.45;9.50;;;11.60;99.90;;;;;;6219922;28;20100;-91
2024/03/17 03:52:21;;;;;;;16.08;8.40;;;11.50;99.90;;;;;;6204092;28;20070;-88
2024/03/17 03:55:22;;;;;;;17.20;7.90;;;11.60;99.90;;;;;;6218394;28;20056;-89
2024/03/17 03:58:23;;;;;;;17.13;8.98;;;11.60;99.90;;;;;;6209555;28;20061;-89
2024/03/17 04:01:23;;;;;;;20.33;8.73;;;11.60;99.90;;;;;;6219608;28;20054;-88
2024/03/17 04:04:24;;;;;;;16.00;8.35;;;11.60;99.90;;;;;;6195284;28;20488;-88
2024/03/17 04:07:25;;;;;;;18.02;8.65;;;11.60;99.90;;;;;;6218822;28;20064;-87
2024/03/17 04:10:26;;;;;;;20.27;9.27;;;11.60;99.90;;;;;;6219127;28;20050;-87
2024/03/17 04:13:27;;;;;;;17.90;9.05;;;11.60;99.90;;;;;;6209021;28;20482;-87
2024/03/17 04:16:27;;;;;;;20.13;8.80;;;11.50;99.90;;;;;;6218979;28;20085;-86
2024/03/17 04:19:28;;;;;;;21.00;9.20;;;11.50;99.90;;;;;;6218368;28;20137;-87
2024/03/17 04:22:29;;;;;;;20.48;9.18;;;11.50;99.90;;;;;;6215196;28;20511;-87
2024/03/17 04:25:29;;;;;;;19.60;8.75;;;11.50;99.90;;;;;;6220032;28;20141;-85
2024/03/17 04:28:30;;;;;;;17.10;8.20;;;11.40;99.90;;;;;;6205826;28;20140;-85
2024/03/17 04:31:31;;;;;;;21.85;8.30;;;11.40;99.90;;;;;;6222396;28;20549;-85
2024/03/17 04:34:32;;;;;;;19.63;7.75;;;11.40;99.90;;;;;;6198728;28;20058;-85
2024/03/17 04:37:38;;;;;;;19.08;7.55;;;11.40;99.90;;;;;;6222523;28;20056;-85
2024/03/17 04:40:39;;;;;;;19.15;7.70;;;11.40;99.90;;;;;;6223392;28;20062;-85
2024/03/17 04:43:39;;;;;;;14.18;7.00;;;11.40;99.90;;;;;;6196979;28;20500;-87
2024/03/17 04:46:40;;;;;;;15.68;7.22;;;11.40;99.90;;;;;;6214396;28;20065;-87
2024/03/17 04:49:42;;;;;;;17.08;7.45;;;11.40;99.90;;;;;;6223278;28;20057;-88
2024/03/17 04:52:43;;;;;;;18.00;7.10;;;11.30;99.90;;;;;;6184226;28;20066;-87
2024/03/17 04:55:43;;;;;;;16.27;7.25;;;11.40;99.90;;;;;;6221024;28;20100;-86
2024/03/17 04:58:44;;;;;;;17.58;6.53;;;11.30;99.90;;;;;;6224611;28;20061;-86
2024/03/17 05:01:45;;;;;;;15.35;6.63;;;11.30;99.90;;;;;;6205550;28;20066;-86
2024/03/17 05:04:45;;;;;;;16.50;6.55;;;11.30;99.90;;;;;;6215876;28;20067;-87
2024/03/17 05:07:46;;;;;;;16.08;6.38;;;11.40;99.90;;;;;;6220283;28;20068;-89
2024/03/17 05:10:46;;;;;;;17.13;6.50;;;11.40;99.90;;;;;;6227393;28;20062;-87
2024/03/17 05:13:47;;;;;;;13.25;5.82;;;11.40;99.90;;;;;;6206205;28;20500;-86
2024/03/17 05:16:48;;;;;;;14.38;6.32;;;11.40;99.90;;;;;;6214919;28;20227;-86
2024/03/17 05:19:48;;;;;;;14.82;6.22;;;11.40;99.90;;;;;;6221651;28;20057;-87
2024/03/17 05:22:49;;;;;;;17.77;6.95;;;11.50;99.90;;;;;;6222031;28;20065;-86
2024/03/17 05:25:50;;;;;;;14.60;6.20;;;11.50;99.90;;;;;;6219516;28;20331;-85
2024/03/17 05:28:50;;;;;;;21.73;7.07;;;11.50;99.90;;;;;;6210005;28;20058;-85
2024/03/17 05:31:51;;;;;;;23.45;7.22;;;11.50;99.90;;;;;;6204780;28;20061;-85
2024/03/17 05:34:51;;;;;;;18.40;6.65;;;11.50;99.90;;;;;;6220934;28;20077;-86
2024/03/17 05:37:52;;;;;;;18.65;6.82;;;11.60;99.90;;;;;;6219728;28;20062;-86
2024/03/17 05:40:53;;;;;;;19.70;6.68;;;11.60;99.90;;;;;;6204706;28;20177;-85
2024/03/17 05:43:58;;;;;;;19.70;6.65;;;11.60;99.90;;;;;;6198762;28;20422;-85
2024/03/17 05:46:59;;;;;;;15.90;6.40;;;11.60;99.90;;;;;;6221013;28;20058;-86
2024/03/17 05:49:59;;;;;;;17.77;6.22;;;11.60;99.90;;;;;;6221573;28;20073;-88
2024/03/17 05:53:00;;;;;;;22.20;7.35;;;11.60;99.90;;;;;;6205881;28;20050;-87
2024/03/17 05:56:01;;;;;;;22.23;7.40;;;11.70;99.90;;;;;;6206246;28;20041;-87
2024/03/17 05:59:02;;;;;;;19.63;7.43;;;11.70;99.90;;;;;;6217299;28;20054;-87
2024/03/17 06:02:03;;;;;;;23.98;7.40;;;11.70;99.90;;;;;;6198109;28;20068;-87
2024/03/17 06:05:04;;;;;;;20.83;6.93;;;11.70;99.90;;;;;;6225713;28;20096;-87
2024/03/17 06:08:05;;;;;;;20.38;6.88;;;11.70;99.90;;;;;;6227005;28;20049;-87
2024/03/17 06:11:06;;;;;;;14.07;5.78;;;11.60;99.90;;;;;;6225082;28;20050;-87
2024/03/17 06:14:09;;;;;;;14.43;6.05;;;11.60;99.90;;;;;;6220305;28;20105;-85
2024/03/17 06:17:09;;;;;;;15.25;5.70;;;11.60;99.90;;;;;;6224512;28;20046;-86
2024/03/17 06:20:13;;;;;;;18.13;5.68;;;11.60;99.90;;;;;;6223376;28;20062;-87
2024/03/17 06:23:13;;;;;;;14.95;5.60;;;11.60;99.90;;;;;;6226583;28;20053;-87
2024/03/17 06:26:14;;;;;;;13.32;5.00;;;11.60;99.90;;;;;;6227965;28;20809;-87
2024/03/17 06:29:15;;;;;;;13.70;5.95;;;11.60;99.90;;;;;;6201333;28;20051;-89
2024/03/17 06:32:17;;;;;;;15.32;5.30;;;11.60;99.90;;;;;;6212329;28;20136;-88
2024/03/17 06:35:25;;;;;;;16.77;5.95;;;11.60;99.90;;;;;;6220761;28;20060;-88
2024/03/17 06:38:26;;;;;;;17.88;5.75;;;11.60;99.90;;;;;;6231039;28;20054;-89
2024/03/17 06:41:26;;;;;;;16.98;6.45;;;11.60;99.90;;;;;;6201273;28;20085;-89
2024/03/17 06:44:30;;;;;;;21.38;6.93;;;11.60;99.90;;;;;;6213527;28;20157;-90
2024/03/17 06:47:30;;;;;;;20.77;6.80;;;11.60;99.90;;;;;;6225186;28;20050;-89
2024/03/17 06:50:31;;;;;;;19.05;6.45;;;11.60;99.90;;;;;;6227062;28;20136;-89
2024/03/17 06:53:33;;;;;;;18.95;6.70;;;11.60;99.90;;;;;;6205482;28;20069;-89
2024/03/17 06:56:35;;;;;;;21.23;6.78;;;11.70;99.90;;;;;;6207696;28;20049;-88
2024/03/17 06:59:36;;;;;;;25.60;7.15;;;11.70;99.90;;;;;;6214458;28;20057;-88
2024/03/17 07:02:36;;;;;;;19.98;6.82;;;11.80;99.90;;;;;;6208305;28;20056;-88
2024/03/17 07:05:37;;;;;;;27.77;7.85;;;11.70;99.90;;;;;;6199929;28;20089;-88
2024/03/17 07:08:39;;;;;;;21.95;8.02;;;11.70;99.90;;;;;;6223410;28;20136;-87
2024/03/17 07:11:39;;;;;;;22.17;7.93;;;11.70;99.90;;;;;;6208253;28;20061;-87
2024/03/17 07:14:40;;;;;;;26.92;8.30;;;11.80;99.90;;;;;;6212574;28;20049;-91
2024/03/17 07:17:40;;;;;;;23.42;8.10;;;11.80;99.90;;;;;;6224079;28;20060;-88
2024/03/17 07:20:42;;;;;;;24.40;7.57;;;11.90;99.90;;;;;;6223967;28;20128;-89
2024/03/17 07:23:43;;;;;;;22.90;7.07;;;11.90;99.90;;;;;;6200263;28;20054;-89
2024/03/17 07:26:44;;;;;;;23.70;6.93;;;11.90;99.90;;;;;;6224096;28;20057;-89
2024/03/17 07:29:44;;;;;;;17.65;6.55;;;11.90;99.90;;;;;;6204651;28;20060;-89
2024/03/17 07:32:45;;;;;;;24.50;6.30;;;12.00;99.90;;;;;;6226470;28;20050;-89
2024/03/17 07:35:45;;;;;;;22.05;6.30;;;12.00;99.90;;;;;;6225819;28;20508;-89
2024/03/17 07:38:46;;;;;;;18.13;6.10;;;11.90;99.90;;;;;;6202246;28;20133;-91
2024/03/17 07:41:47;;;;;;;15.23;5.20;;;12.00;99.90;;;;;;6225059;28;20556;-92
2024/03/17 07:44:48;;;;;;;14.98;5.18;;;12.00;99.90;;;;;;6203595;28;20062;-89
2024/03/17 07:47:49;;;;;;;17.67;5.35;;;11.90;99.90;;;;;;6226043;28;20510;-90
2024/03/17 07:50:50;;;;;;;15.98;5.13;;;12.00;99.90;;;;;;6226035;28;20480;-90
2024/03/17 07:53:51;;;;;;;15.52;4.70;;;12.00;99.90;;;;;;6227135;28;20061;-90
2024/03/17 07:56:52;;;;;;;15.88;4.55;;;12.00;99.90;;;;;;6227522;28;20413;-91
2024/03/17 07:59:53;;;;;;;14.20;3.88;;;12.10;99.90;;;;;;6208102;28;20054;-90
2024/03/17 08:02:53;;;;;;;13.38;3.63;;;12.10;99.90;;;;;;6231171;28;20088;-90
2024/03/17 08:05:54;;;;;;;12.32;3.80;;;12.10;99.90;;;;;;6234869;28;20046;-89
2024/03/17 08:08:55;;;;;;;14.40;3.83;;;12.20;99.90;;;;;;6236713;28;20061;-89
2024/03/17 08:11:56;;;;;;;11.43;3.47;;;12.20;99.90;;;;;;6222351;28;20114;-91
2024/03/17 08:14:57;;;;;;;11.13;3.85;;;12.20;99.90;;;;;;6221016;28;20058;-90
2024/03/17 08:17:58;;;;;;;11.60;3.40;;;12.20;99.90;;;;;;6240464;28;20080;-91
2024/03/17 08:20:59;;;;;;;12.63;3.40;;;12.20;99.90;;;;;;6214298;28;20136;-90
2024/03/17 08:24:00;;;;;;;9.00;3.40;;;12.20;99.90;;;;;;6230684;28;20056;-90
2024/03/17 08:27:01;;;;;;;10.90;2.90;;;12.30;99.90;;;;;;6214303;28;20053;-91
2024/03/17 08:30:03;;;;;;;10.90;3.10;;;12.30;99.90;;;;;;6215873;28;20049;-92
2024/03/17 08:33:04;;;;;;;9.77;3.00;;;12.30;99.90;;;;;;6214964;28;20058;-92
2024/03/17 08:36:05;;;;;;;10.30;3.05;;;12.20;99.90;;;;;;6237522;28;20468;-92
2024/03/17 08:39:05;;;;;;;10.02;2.92;;;12.20;99.90;;;;;;6238253;28;20413;-92
2024/03/17 08:42:06;;;;;;;7.88;2.67;;;12.20;99.90;;;;;;6212662;28;20050;-92
2024/03/17 08:45:08;;;;;;;9.90;2.85;;;12.20;99.90;;;;;;6224468;28;20220;-91
2024/03/17 08:48:10;;;;;;;8.32;2.83;;;12.20;99.90;;;;;;6230913;28;20056;-91
2024/03/17 08:51:10;;;;;;;9.90;2.30;;;12.20;99.90;;;;;;6238042;28;20054;-92
2024/03/17 08:54:11;;;;;;;10.35;3.25;;;12.30;99.90;;;;;;6220178;28;20062;-92
2024/03/17 08:57:12;;;;;;;9.10;2.80;;;12.20;99.90;;;;;;6239941;28;20057;-91
2024/03/17 09:00:14;;;;;;;10.25;2.90;;;12.30;99.90;;;;;;6208118;28;20133;-92
2024/03/17 09:03:15;;;;;;;10.80;2.92;;;12.30;99.90;;;;;;6233532;28;20072;-91
2024/03/17 09:06:20;;;;;;;7.97;2.60;;;12.30;99.90;;;;;;6230366;28;20057;-91
2024/03/17 09:09:21;;;;;;;6.20;2.20;;;12.30;99.90;;;;;;6213401;28;20050;-92
2024/03/17 09:12:22;;;;;;;6.07;2.15;;;12.30;99.90;;;;;;6228364;28;20113;-90
2024/03/17 09:15:22;;;;;;;6.85;2.42;;;12.30;99.90;;;;;;6221229;28;20057;-91
2024/03/17 09:18:23;;;;;;;9.10;2.40;;;12.30;99.90;;;;;;6230138;28;20049;-89
2024/03/17 09:21:24;;;;;;;7.88;2.20;;;12.40;99.90;;;;;;6229212;28;20064;-90
2024/03/17 09:24:24;;;;;;;8.43;2.30;;;12.30;99.90;;;;;;6230593;28;20050;-91
2024/03/17 09:27:26;;;;;;;8.23;2.15;;;12.40;99.90;;;;;;6210424;28;20057;-91
2024/03/17 09:30:27;;;;;;;6.47;1.88;;;12.40;99.90;;;;;;6220567;28;20136;-90
2024/03/17 09:33:28;;;;;;;6.45;1.92;;;12.30;99.90;;;;;;6230026;28;20057;-90
2024/03/17 09:36:28;;;;;;;5.35;1.60;;;12.30;99.90;;;;;;6204186;28;20417;-90
2024/03/17 09:39:29;;;;;;;3.10;1.20;;;12.30;99.90;;;;;;6227166;28;20050;-89
2024/03/17 09:42:29;;;;;;;5.13;1.17;;;12.30;99.90;;;;;;6223273;28;20060;-90
2024/03/17 09:45:33;;;;;;;5.05;1.30;;;12.30;99.90;;;;;;6221050;28;20061;-91
2024/03/17 09:48:34;;;;;;;3.55;1.30;;;12.30;99.90;;;;;;6227259;28;20054;-89
2024/03/17 09:51:36;;;;;;;4.07;1.20;;;12.40;99.90;;;;;;6217259;28;20405;-89
2024/03/17 09:54:37;;;;;;;6.10;1.10;;;12.30;99.90;;;;;;6227067;28;20064;-92
2024/03/17 09:57:38;;;;;;;3.30;1.00;;;12.40;99.90;;;;;;6210686;28;20050;-93
2024/03/17 10:00:38;;;;;;;2.92;1.00;;;12.40;99.90;;;;;;6203062;28;20057;-92
2024/03/17 10:03:40;;;;;;;2.78;0.88;;;12.40;99.90;;;;;;6222159;28;20140;-91
2024/03/17 10:06:41;;;;;;;3.28;0.88;;;12.40;99.90;;;;;;6225643;28;20069;-92
2024/03/17 10:09:44;;;;;;;3.67;0.90;;;12.40;99.90;;;;;;6209096;28;20414;-91
2024/03/17 10:12:45;;;;;;;3.03;0.80;;;12.40;99.90;;;;;;6203422;28;20077;-92
2024/03/17 10:15:45;;;;;;;2.78;0.95;;;12.50;99.90;;;;;;6198309;28;20075;-90
2024/03/17 10:18:47;;;;;;;3.97;1.10;;;12.40;99.90;;;;;;6197796;28;20062;-91
2024/03/17 10:21:50;;;;;;;5.40;0.90;;;12.50;99.90;;;;;;6228198;28;20557;-91
2024/03/17 10:24:51;;;;;;;2.75;0.88;;;12.60;99.90;;;;;;6227925;28;20056;-91
2024/03/17 10:27:52;;;;;;;3.45;0.98;;;12.70;99.90;;;;;;6208888;28;20129;-91
2024/03/17 10:30:53;;;;;;;2.70;1.10;;;12.70;99.90;;;;;;6215810;28;20062;-91
2024/03/17 10:33:54;;;;;;;3.50;0.85;;;12.60;99.90;;;;;;6227394;28;20460;-91
2024/03/17 10:36:55;;;;;;;2.15;0.82;;;12.60;99.90;;;;;;6228067;28;20061;-93
2024/03/17 10:39:56;;;;;;;2.80;0.88;;;12.70;99.90;;;;;;6212012;28;20057;-91
2024/03/17 10:42:57;;;;;;;3.22;0.95;;;12.80;99.90;;;;;;6210130;28;20067;-79
2024/03/17 10:45:59;;;;;;;3.13;0.90;;;13.10;99.90;;;;;;6208541;28;20062;-94
2024/03/17 10:49:00;;;;;;;2.65;0.70;;;13.30;99.90;;;;;;6229581;28;20404;-92
2024/03/17 10:52:01;;;;;;;2.05;0.70;;;13.50;99.90;;;;;;6212757;28;20136;-92
2024/03/17 10:55:01;;;;;;;1.40;0.60;;;13.50;99.90;;;;;;6211861;28;20050;-92
2024/03/17 10:58:03;;;;;;;1.92;0.50;;;13.70;99.90;;;;;;6206145;28;20061;-88
2024/03/17 11:01:06;;;;;;;3.20;0.60;;;13.80;99.90;;;;;;6210246;28;20079;-90
2024/03/17 11:04:07;;;;;;;1.23;0.50;;;13.80;99.90;;;;;;6213070;28;20068;-91
2024/03/17 11:07:09;;;;;;;1.55;0.50;;;13.80;99.90;;;;;;6227625;28;20057;-92
2024/03/17 11:10:11;;;;;;;1.77;0.50;;;13.80;99.90;;;;;;6212778;28;20064;-94
2024/03/17 11:13:12;;;;;;;1.85;0.50;;;14.00;99.90;;;;;;6219985;28;20053;-92
2024/03/17 11:16:15;;;;;;;0.90;0.40;;;14.00;99.90;;;;;;6233264;28;20061;-94
2024/03/17 11:19:16;;;;;;;2.20;0.88;;;14.20;99.90;;;;;;6229310;28;20145;-93
2024/03/17 11:22:17;;;;;;;0.90;0.40;;;14.40;99.90;;;;;;6215488;28;20413;-93
2024/03/17 11:25:18;;;;;;;1.50;0.60;;;14.60;99.90;;;;;;6211189;28;20054;-91
2024/03/17 11:28:19;;;;;;;1.08;0.40;;;14.50;99.90;;;;;;6224247;28;20069;-90
2024/03/17 11:31:20;;;;;;;0.90;0.50;;;14.70;99.90;;;;;;6228845;28;20049;-85
2024/03/17 11:34:21;;;;;;;0.85;0.40;;;14.80;99.90;;;;;;6211107;28;20053;-93
2024/03/17 11:37:22;;;;;;;1.20;0.52;;;14.90;99.90;;;;;;6218393;28;20496;-92
2024/03/17 11:40:23;;;;;;;0.88;0.50;;;14.70;99.90;;;;;;6232808;28;20136;-92
2024/03/17 11:43:24;;;;;;;1.10;0.50;;;14.60;99.90;;;;;;6221977;28;20464;-88
2024/03/17 11:46:25;;;;;;;1.90;0.60;;;14.60;99.90;;;;;;6212730;28;20069;-92
2024/03/17 11:49:26;;;;;;;0.95;0.50;;;14.40;99.90;;;;;;6216853;28;20060;-83
2024/03/17 11:52:27;;;;;;;1.67;0.60;;;14.40;99.90;;;;;;6228158;28;20053;-89
2024/03/17 11:55:28;;;;;;;1.58;0.60;;;14.30;99.90;;;;;;6224714;28;20136;-88
2024/03/17 11:58:28;;;;;;;2.03;0.52;;;14.30;99.90;;;;;;6213893;28;20516;-89
2024/03/17 12:01:29;;;;;;;2.40;0.90;;;14.20;99.90;;;;;;6225459;28;20115;-88
2024/03/17 12:04:30;;;;;;;1.70;0.70;;;14.30;99.90;;;;;;6225195;28;20397;-90
2024/03/17 12:07:30;;;;;;;2.05;0.80;;;14.40;99.90;;;;;;6225010;28;20057;-90
2024/03/17 12:10:31;;;;;;;2.03;0.90;;;14.60;99.90;;;;;;6224428;28;20050;-89
2024/03/17 12:13:32;;;;;;;2.03;0.80;;;14.70;99.90;;;;;;6201122;28;20057;-90
2024/03/17 12:16:32;;;;;;;2.45;0.80;;;14.90;99.90;;;;;;6208729;28;20053;-89
2024/03/17 12:19:33;;;;;;;1.85;0.90;;;14.80;99.90;;;;;;6208462;28;20127;-90
2024/03/17 12:22:37;;;;;;;2.80;0.80;;;14.80;99.90;;;;;;6224380;28;20064;-87
2024/03/17 12:25:37;;;;;;;2.33;0.90;;;14.80;99.90;;;;;;6210107;28;20054;-87
2024/03/17 12:28:38;;;;;;;2.20;1.00;;;14.90;99.90;;;;;;6214442;28;20125;-88
2024/03/17 12:31:39;;;;;;;2.03;0.80;;;15.10;99.90;;;;;;6224474;28;20407;-89
2024/03/17 12:34:41;;;;;;;1.70;0.70;;;15.40;99.90;;;;;;6225129;28;20811;-90
2024/03/17 12:37:42;;;;;;;2.97;0.80;;;15.20;99.90;;;;;;6224220;28;20444;-89
2024/03/17 12:40:42;;;;;;;2.35;0.88;;;15.30;99.90;;;;;;6233470;28;20068;-93
2024/03/17 12:43:43;;;;;;;1.92;0.80;;;15.10;99.90;;;;;;6210561;28;20058;-92
2024/03/17 12:46:45;;;;;;;1.90;0.80;;;15.00;99.90;;;;;;6216369;28;20176;-92
2024/03/17 12:49:45;;;;;;;1.67;0.70;;;15.10;99.90;;;;;;6240146;28;20064;-91
2024/03/17 12:52:46;;;;;;;2.10;0.80;;;15.30;99.90;;;;;;6213933;28;20878;-92
2024/03/17 13:02:39;;;;;;;2.20;0.77;;;15.80;99.90;;;;;;6174410;28;20074;-91
2024/03/17 13:05:40;;;;;;;2.08;0.60;;;16.00;99.90;;;;;;6180615;28;20065;-90
2024/03/17 13:08:40;;;;;;;2.40;0.70;;;16.10;99.90;;;;;;6190741;28;20054;-92
2024/03/17 13:11:41;;;;;;;1.30;0.60;;;16.20;98.90;;;;;;6201572;28;20062;-90
2024/03/17 13:14:43;;;;;;;2.15;0.65;;;16.30;98.10;;;;;;6170065;28;20290;-89
2024/03/17 13:17:44;;;;;;;2.10;0.80;;;16.40;96.40;;;;;;6159056;28;20073;-88
2024/03/17 13:20:45;;;;;;;2.78;0.93;;;16.50;96.70;;;;;;6198083;28;20062;-88
2024/03/17 13:23:46;;;;;;;5.97;0.90;;;16.50;93.70;;;;;;6151647;28;20478;-84
2024/03/17 13:26:48;;;;;;;1.80;0.80;;;16.30;92.50;;;;;;6178177;28;20062;-82
2024/03/17 13:29:49;;;;;;;2.75;0.80;;;16.30;97.70;;;;;;6139475;28;20080;-86
2024/03/17 13:32:55;;;;;;;2.78;0.80;;;16.10;97.40;;;;;;6165431;28;20058;-86
2024/03/17 13:35:56;;;;;;;3.08;0.88;;;16.10;96.90;;;;;;6213788;28;20409;-85
2024/03/17 13:38:56;;;;;;;2.05;0.80;;;16.10;99.20;;;;;;6206574;28;20061;-85
2024/03/17 13:42:02;;;;;;;3.15;1.00;;;16.20;96.90;;;;;;6223127;28;20057;-86
2024/03/17 13:45:02;;;;;;;2.67;1.00;;;16.10;95.20;;;;;;6201832;28;20534;-85
2024/03/17 13:48:10;;;;;;;3.13;1.20;;;15.90;96.20;;;;;;6221856;28;20065;-85
2024/03/17 13:51:11;;;;;;;3.08;1.70;;;16.00;98.50;;;;;;6198230;28;20441;-85
2024/03/17 13:54:11;;;;;;;2.97;1.38;;;16.00;97.40;;;;;;6213428;28;20046;-85
2024/03/17 13:57:12;;;;;;;4.68;2.20;;;16.00;97.80;;;;;;6203038;28;20082;-84
2024/03/17 14:00:15;;;;;;;3.17;1.35;;;16.20;98.80;;;;;;6199367;28;20062;-84
2024/03/17 14:03:16;;;;;;;3.58;1.50;;;16.20;90.30;;;;;;6221935;28;20115;-85
2024/03/17 14:06:17;;;;;;;2.92;1.30;;;16.10;90.80;;;;;;6198250;28;20494;-83
2024/03/17 14:09:18;;;;;;;2.90;1.50;;;16.00;90.20;;;;;;6219830;28;20053;-84
2024/03/17 14:12:18;;;;;;;3.25;1.42;;;16.00;92.50;;;;;;6221730;28;20062;-84
2024/03/17 14:15:19;;;;;;;4.47;1.60;;;16.00;92.70;;;;;;6211039;28;20088;-83
2024/03/17 14:18:20;;;;;;;3.67;1.83;;;15.90;93.40;;;;;;6220357;28;20406;-84
2024/03/17 14:21:21;;;;;;;4.90;2.30;;;15.80;92.40;;;;;;6221129;28;20099;-85
2024/03/17 14:24:22;;;;;;;3.33;1.35;;;15.90;96.30;;;;;;6202456;28;20598;-84
2024/03/17 14:27:23;;;;;;;2.85;1.20;;;16.00;95.90;;;;;;6219749;28;20056;-84
2024/03/17 14:30:23;;;;;;;3.97;1.50;;;16.00;94.40;;;;;;6215590;28;20057;-83
2024/03/17 14:33:24;;;;;;;4.25;1.50;;;15.80;95.60;;;;;;6180861;28;20046;-83
2024/03/17 14:36:28;;;;;;;4.57;1.58;;;15.70;96.70;;;;;;6219978;28;20046;-84
2024/03/17 14:39:29;;;;;;;3.83;1.83;;;15.60;98.30;;;;;;6218773;28;20049;-85
2024/03/17 14:42:30;;;;;;;5.25;2.15;;;15.50;98.80;;;;;;6203695;28;20081;-84
2024/03/17 14:45:30;;;;;;;5.68;2.08;;;15.50;98.90;;;;;;6187005;28;20554;-83
2024/03/17 14:48:31;;;;;;;4.40;2.55;;;15.50;99.80;;;;;;6218110;28;20053;-83
2024/03/17 14:51:32;;;;;;;4.22;2.45;;;15.60;99.90;;;;;;6218723;28;20108;-84
2024/03/17 14:54:33;;;;;;;5.60;3.00;;;15.60;99.90;;;;;;6218926;28;20081;-83
2024/03/17 14:57:33;;;;;;;5.82;2.88;;;15.60;99.90;;;;;;6215158;28;20052;-82
2024/03/17 15:00:35;;;;;;;6.13;3.15;;;15.60;99.90;;;;;;6213040;28;20092;-83
2024/03/17 15:03:35;;;;;;;6.30;3.25;;;15.60;99.70;;;;;;6219101;28;20072;-83
2024/03/17 15:06:36;;;;;;;6.75;3.83;;;15.90;99.60;;;;;;6217458;28;20501;-84
2024/03/17 15:09:36;;;;;;;12.55;5.63;;;15.90;98.10;;;;;;6208147;28;20060;-83
2024/03/17 15:12:37;;;;;;;9.02;4.28;;;16.10;98.40;;;;;;6218562;28;20057;-84
2024/03/17 15:15:38;;;;;;;11.40;4.70;;;16.10;94.60;;;;;;6213531;28;20527;-79
2024/03/17 15:18:38;;;;;;;6.63;3.20;;;16.30;94.80;;;;;;6218326;28;20053;-84
2024/03/17 15:21:39;;;;;;;5.63;3.30;;;16.50;93.00;;;;;;6219323;28;20101;-85
2024/03/17 15:24:40;;;;;;;8.73;3.40;;;16.70;92.60;;;;;;6217803;28;20054;-82
2024/03/17 15:27:42;;;;;;;6.70;2.63;;;16.50;91.30;;;;;;6219036;28;20523;-81
2024/03/17 15:30:42;;;;;;;7.70;3.35;;;16.40;92.10;;;;;;6212952;28;20108;-82
2024/03/17 15:33:43;;;;;;;5.40;2.47;;;16.40;94.10;;;;;;6209939;28;20125;-84
2024/03/17 15:36:44;;;;;;;6.28;2.70;;;16.30;91.60;;;;;;6217865;28;20058;-84
2024/03/17 15:39:45;;;;;;;6.60;2.20;;;16.50;92.20;;;;;;6199441;28;20073;-82
2024/03/17 15:42:45;;;;;;;4.85;2.03;;;16.40;85.00;;;;;;6217383;28;20045;-83